Station Historical Data
Daily Summary for November 4, 2017 Units:  English    Metric   Both
« Previous Day
Next Day »
Daily Weekly Monthly Yearly Custom
  High: Low: Average:
Temperature: 73.7 °F 58.3 °F 64.6 °F
Dew Point: 66.4 °F 56.3 °F 61.8 °F
Humidity: 94% 74% 91%
Wind Speed: 1.2mph 0.0mph 0.1mph
Wind Gust: 6.0mph - -
Wind- - SW
Pressure: 30.16 in 30.06 in -
Precipitation: 0.67 in    
Historical Graphs
 
 
Tabular Data for November 4, 2017
Time Temperature Dew Point Pressure Wind Wind Speed Wind Gust Humidity Rainfall Rate (Hourly) solar Conditions
00:01 62.9 °F 60.5 °F 30.16 in Calm     92% 0.00 in WeatherDisplay:10.37 W/m2 BKN
00:07 62.5 °F 60.1 °F 30.16 in Calm     92% 0.00 in WeatherDisplay:10.37 W/m2 BKN
00:12 62.2 °F 59.8 °F 30.16 in Calm     92% 0.00 in WeatherDisplay:10.37 W/m2 BKN
00:17 62.0 °F 59.6 °F 30.15 in Calm     92% 0.00 in WeatherDisplay:10.37 W/m2 SCT
00:22 62.0 °F 59.6 °F 30.15 in Calm     92% 0.00 in WeatherDisplay:10.37 W/m2 SCT
00:27 62.0 °F 59.6 °F 30.15 in Calm     92% 0.00 in WeatherDisplay:10.37 W/m2 SCT
00:32 61.9 °F 59.5 °F 30.15 in Calm     92% 0.00 in WeatherDisplay:10.37 W/m2 SCT
00:37 61.9 °F 59.5 °F 30.15 in Calm     92% 0.00 in WeatherDisplay:10.37 W/m2 SCT
00:42 61.8 °F 59.5 °F 30.15 in Calm     92% 0.00 in WeatherDisplay:10.37 W/m2 SCT
00:47 61.7 °F 59.4 °F 30.15 in Calm     92% 0.00 in WeatherDisplay:10.37 W/m2 SCT
00:48 61.6 °F 59.3 °F 30.14 in Calm     92% 0.00 in WeatherDisplay:10.37 W/m2 SCT
00:53 61.5 °F 59.2 °F 30.15 in Calm     92% 0.00 in WeatherDisplay:10.37 W/m2 SCT
00:58 61.4 °F 59.1 °F 30.14 in Calm     92% 0.00 in WeatherDisplay:10.37 W/m2 SCT
01:03 61.3 °F 59.0 °F 30.14 in Calm     92% 0.00 in WeatherDisplay:10.37 W/m2 SCT
01:08 61.3 °F 59.0 °F 30.14 in Calm     92% 0.00 in WeatherDisplay:10.37 W/m2 SCT
01:14 61.3 °F 59.0 °F 30.14 in Calm     92% 0.00 in WeatherDisplay:10.37 W/m2 SCT
01:19 61.3 °F 59.3 °F 30.14 in Calm     93% 0.00 in WeatherDisplay:10.37 W/m2 SCT
01:21 61.3 °F 59.3 °F 30.14 in Calm     93% 0.00 in WeatherDisplay:10.37 W/m2 SCT
01:26 61.3 °F 59.3 °F 30.14 in Calm     93% 0.00 in WeatherDisplay:10.37 W/m2 SCT
01:31 61.3 °F 59.3 °F 30.14 in Calm     93% 0.00 in WeatherDisplay:10.37 W/m2 SCT
01:36 61.5 °F 59.5 °F 30.14 in Calm     93% 0.00 in WeatherDisplay:10.37 W/m2 SCT
01:41 61.7 °F 59.7 °F 30.14 in Calm     93% 0.00 in WeatherDisplay:10.37 W/m2 SCT
01:46 61.7 °F 59.7 °F 30.13 in Calm     93% 0.00 in WeatherDisplay:10.37 W/m2 SCT
01:51 61.7 °F 59.7 °F 30.13 in Calm     93% 0.00 in WeatherDisplay:10.37 W/m2 SCT
01:56 61.7 °F 59.7 °F 30.13 in Calm     93% 0.00 in WeatherDisplay:10.37 W/m2 SCT
02:01 61.6 °F 59.6 °F 30.13 in Calm     93% 0.00 in WeatherDisplay:10.37 W/m2 SCT
02:06 61.5 °F 59.5 °F 30.13 in Calm     93% 0.00 in WeatherDisplay:10.37 W/m2 SCT
02:11 61.5 °F 59.5 °F 30.12 in Calm     93% 0.00 in WeatherDisplay:10.37 W/m2 BKN
02:16 61.4 °F 59.4 °F 30.12 in Calm     93% 0.00 in WeatherDisplay:10.37 W/m2 BKN
02:21 61.3 °F 59.3 °F 30.12 in Calm     93% 0.00 in WeatherDisplay:10.37 W/m2 BKN
02:26 61.3 °F 59.3 °F 30.12 in Calm     93% 0.00 in WeatherDisplay:10.37 W/m2 BKN
02:31 61.2 °F 59.2 °F 30.11 in Calm     93% 0.00 in WeatherDisplay:10.37 W/m2 BKN
02:36 61.2 °F 59.2 °F 30.11 in Calm     93% 0.00 in WeatherDisplay:10.37 W/m2 BKN
02:41 61.2 °F 59.2 °F 30.11 in Calm     93% 0.00 in WeatherDisplay:10.37 W/m2 BKN
02:46 61.2 °F 59.2 °F 30.11 in Calm     93% 0.00 in WeatherDisplay:10.37 W/m2 BKN
02:51 61.1 °F 59.1 °F 30.11 in Calm     93% 0.00 in WeatherDisplay:10.37 W/m2 BKN
02:56 61.1 °F 59.1 °F 30.11 in Calm     93% 0.00 in WeatherDisplay:10.37 W/m2 BKN
03:01 61.2 °F 59.2 °F 30.12 in Calm     93% 0.00 in WeatherDisplay:10.37 W/m2 BKN
03:06 61.3 °F 59.3 °F 30.11 in Calm     93% 0.00 in WeatherDisplay:10.37 W/m2 BKN
03:11 61.1 °F 59.1 °F 30.11 in Calm     93% 0.00 in WeatherDisplay:10.37 W/m2 BKN
03:16 61.0 °F 59.0 °F 30.11 in Calm     93% 0.00 in WeatherDisplay:10.37 W/m2 BKN
03:21 60.9 °F 58.9 °F 30.11 in Calm     93% 0.00 in WeatherDisplay:10.37 W/m2 BKN
03:27 61.1 °F 59.1 °F 30.11 in Calm     93% 0.00 in WeatherDisplay:10.37 W/m2 BKN
03:32 61.0 °F 59.0 °F 30.11 in Calm     93% 0.00 in WeatherDisplay:10.37 W/m2 SCT
03:37 61.0 °F 59.0 °F 30.11 in Calm     93% 0.00 in WeatherDisplay:10.37 W/m2 SCT
03:42 61.0 °F 59.0 °F 30.11 in Calm     93% 0.00 in WeatherDisplay:10.37 W/m2 SCT
03:47 60.9 °F 58.9 °F 30.11 in Calm     93% 0.00 in WeatherDisplay:10.37 W/m2 SCT
03:52 60.8 °F 58.8 °F 30.11 in Calm     93% 0.00 in WeatherDisplay:10.37 W/m2 SCT
03:57 60.7 °F 58.7 °F 30.11 in Calm     93% 0.00 in WeatherDisplay:10.37 W/m2 SCT
04:02 60.6 °F 58.6 °F 30.11 in Calm     93% 0.00 in WeatherDisplay:10.37 W/m2 SCT
04:07 60.5 °F 58.5 °F 30.11 in Calm     93% 0.00 in WeatherDisplay:10.37 W/m2 SCT
04:12 60.3 °F 58.3 °F 30.10 in Calm     93% 0.00 in WeatherDisplay:10.37 W/m2 BKN
04:17 60.3 °F 58.3 °F 30.10 in Calm     93% 0.00 in WeatherDisplay:10.37 W/m2 BKN
04:22 60.4 °F 58.4 °F 30.10 in Calm     93% 0.00 in WeatherDisplay:10.37 W/m2 BKN
04:27 60.4 °F 58.4 °F 30.11 in Calm     93% 0.00 in WeatherDisplay:10.37 W/m2 BKN
04:32 60.3 °F 58.3 °F 30.11 in Calm     93% 0.00 in WeatherDisplay:10.37 W/m2 BKN
04:37 60.2 °F 58.2 °F 30.11 in Calm     93% 0.00 in WeatherDisplay:10.37 W/m2 BKN
04:42 60.5 °F 58.5 °F 30.11 in Calm     93% 0.00 in WeatherDisplay:10.37 W/m2 FEW
04:47 60.3 °F 58.3 °F 30.11 in Calm     93% 0.00 in WeatherDisplay:10.37 W/m2 FEW
04:52 60.1 °F 58.1 °F 30.11 in Calm     93% 0.00 in WeatherDisplay:10.37 W/m2 FEW
04:58 59.9 °F 57.9 °F 30.11 in Calm     93% 0.00 in WeatherDisplay:10.37 W/m2 FEW
05:03 59.9 °F 57.9 °F 30.11 in Calm     93% 0.00 in WeatherDisplay:10.37 W/m2 FEW
05:08 59.9 °F 57.9 °F 30.11 in Calm     93% 0.00 in WeatherDisplay:10.37 W/m2 FEW
05:13 60.0 °F 58.0 °F 30.11 in Calm     93% 0.00 in WeatherDisplay:10.37 W/m2 SCT
05:18 60.0 °F 58.0 °F 30.11 in Calm     93% 0.00 in WeatherDisplay:10.37 W/m2 SCT
05:23 60.0 °F 58.0 °F 30.11 in Calm     93% 0.00 in WeatherDisplay:10.37 W/m2 SCT
05:28 60.1 °F 58.1 °F 30.12 in Calm     93% 0.00 in WeatherDisplay:10.37 W/m2 SCT
05:33 60.1 °F 58.1 °F 30.12 in Calm     93% 0.00 in WeatherDisplay:10.37 W/m2 BKN
05:38 60.1 °F 58.1 °F 30.12 in Calm     93% 0.00 in WeatherDisplay:10.37 W/m2 BKN
05:43 60.1 °F 58.1 °F 30.12 in Calm     93% 0.00 in WeatherDisplay:10.37 W/m2 BKN
05:48 60.1 °F 58.1 °F 30.12 in Calm     93% 0.00 in WeatherDisplay:10.37 W/m2 BKN
05:53 60.2 °F 58.2 °F 30.12 in Calm     93% 0.00 in WeatherDisplay:10.37 W/m2 BKN
05:58 60.1 °F 58.1 °F 30.12 in Calm     93% 0.00 in WeatherDisplay:10.37 W/m2 BKN
06:03 60.0 °F 58.0 °F 30.12 in Calm     93% 0.00 in WeatherDisplay:10.37 W/m2 BKN
06:13 60.0 °F 58.0 °F 30.12 in Calm     93% 0.00 in WeatherDisplay:10.37 W/m2 FEW
06:18 59.9 °F 57.9 °F 30.12 in Calm     93% 0.00 in WeatherDisplay:10.37 W/m2 FEW
06:23 59.8 °F 57.8 °F 30.12 in Calm     93% 0.00 in WeatherDisplay:10.37 W/m2 FEW
06:28 59.7 °F 57.7 °F 30.13 in Calm     93% 0.00 in WeatherDisplay:10.37 W/m2 FEW
06:33 59.6 °F 57.6 °F 30.13 in Calm     93% 0.00 in WeatherDisplay:10.37 W/m2 FEW
06:38 59.5 °F 57.5 °F 30.12 in Calm     93% 0.00 in WeatherDisplay:10.37 W/m2 FEW
06:43 59.4 °F 57.4 °F 30.13 in Calm     93% 0.00 in WeatherDisplay:10.37 W/m2 FEW
06:48 59.3 °F 57.3 °F 30.13 in Calm     93% 0.00 in WeatherDisplay:10.37 W/m2 FEW
06:54 59.2 °F 57.2 °F 30.13 in Calm     93% 0.00 in WeatherDisplay:10.37 W/m2 FEW
06:59 59.1 °F 57.1 °F 30.13 in Calm     93% 0.00 in WeatherDisplay:10.37 W/m2 FEW
07:04 59.1 °F 57.1 °F 30.13 in Calm     93% 0.00 in WeatherDisplay:10.37 W/m2 FEW
07:09 59.0 °F 57.0 °F 30.13 in Calm     93% 0.00 in WeatherDisplay:10.37 W/m2 FEW
07:14 58.9 °F 56.9 °F 30.13 in Calm     93% 0.00 in WeatherDisplay:10.37 W/m2 BKN
07:19 58.8 °F 56.8 °F 30.13 in Calm     93% 0.00 in WeatherDisplay:10.37 W/m2 BKN
07:24 59.0 °F 57.0 °F 30.13 in Calm     93% 0.00 in WeatherDisplay:10.37 W/m2 BKN
07:29 59.0 °F 57.0 °F 30.13 in Calm     93% 0.00 in WeatherDisplay:10.37 W/m2 BKN
07:31 58.9 °F 56.9 °F 30.14 in Calm     93% 0.00 in WeatherDisplay:10.37 W/m2 BKN
07:36 58.8 °F 56.8 °F 30.14 in Calm     93% 0.00 in WeatherDisplay:10.37 W/m2 BKN
07:41 58.7 °F 56.7 °F 30.14 in Calm     93% 0.00 in WeatherDisplay:10.37 W/m2 BKN
07:46 58.7 °F 56.7 °F 30.14 in Calm     93% 0.00 in WeatherDisplay:10.37 W/m2 BKN
07:51 58.6 °F 56.6 °F 30.14 in Calm     93% 0.00 in WeatherDisplay:10.37 W/m2 BKN
07:56 58.5 °F 56.5 °F 30.14 in Calm     93% 0.00 in WeatherDisplay:10.37 W/m2 BKN
08:01 58.4 °F 56.4 °F 30.14 in Calm     93% 0.00 in WeatherDisplay:10.37 W/m2 BKN
08:06 58.4 °F 56.4 °F 30.14 in Calm     93% 0.00 in WeatherDisplay:10.37 W/m2 BKN
08:11 58.3 °F 56.3 °F 30.14 in Calm     93% 0.00 in WeatherDisplay:10.37 W/m2 SCT
08:16 58.4 °F 56.4 °F 30.14 in Calm     93% 0.00 in WeatherDisplay:10.37 W/m2 SCT
08:21 58.5 °F 56.8 °F 30.14 in Calm     94% 0.00 in WeatherDisplay:10.37 W/m2 SCT
08:26 58.5 °F 56.8 °F 30.15 in Calm     94% 0.00 in WeatherDisplay:10.37 W/m2 SCT
08:31 58.6 °F 56.9 °F 30.15 in Calm     94% 0.00 in WeatherDisplay:10.37 W/m2 SCT
08:36 58.6 °F 56.9 °F 30.15 in Calm     94% 0.00 in WeatherDisplay:10.37 W/m2 SCT
08:41 58.6 °F 56.9 °F 30.15 in Calm     94% 0.00 in WeatherDisplay:10.37 W/m2 SCT
08:46 58.8 °F 57.1 °F 30.15 in Calm     94% 0.00 in WeatherDisplay:10.37 W/m2 SCT
08:51 58.9 °F 57.2 °F 30.15 in Calm     94% 0.00 in WeatherDisplay:10.37 W/m2 SCT
08:56 59.0 °F 57.3 °F 30.15 in Calm     94% 0.00 in WeatherDisplay:10.37 W/m2 SCT
09:01 59.1 °F 57.4 °F 30.16 in Calm     94% 0.00 in WeatherDisplay:10.37 W/m2 BKN
09:07 59.2 °F 57.5 °F 30.15 in Calm     94% 0.00 in WeatherDisplay:10.37 W/m2 BKN
09:12 59.5 °F 57.8 °F 30.16 in Calm     94% 0.00 in WeatherDisplay:10.37 W/m2 BKN
09:17 60.1 °F 58.4 °F 30.16 in Calm     94% 0.00 in WeatherDisplay:10.37 W/m2 BKN
09:22 60.5 °F 58.8 °F 30.16 in Calm     94% 0.00 in WeatherDisplay:10.37 W/m2 BKN
09:27 60.8 °F 59.1 °F 30.16 in Calm     94% 0.00 in WeatherDisplay:10.37 W/m2 BKN
09:32 61.0 °F 59.3 °F 30.16 in Calm     94% 0.00 in WeatherDisplay:10.37 W/m2 BKN
09:37 61.4 °F 59.7 °F 30.16 in Calm     94% 0.00 in WeatherDisplay:10.37 W/m2 BKN
09:42 61.8 °F 60.1 °F 30.16 in Calm     94% 0.00 in WeatherDisplay:10.37 W/m2 SCT
09:47 62.5 °F 60.7 °F 30.16 in Calm     94% 0.00 in WeatherDisplay:10.37 W/m2 SCT
09:52 62.8 °F 61.0 °F 30.16 in Calm     94% 0.00 in WeatherDisplay:10.37 W/m2 SCT
09:57 63.6 °F 61.8 °F 30.16 in Calm     94% 0.00 in WeatherDisplay:10.37 W/m2 SCT
10:02 64.2 °F 62.4 °F 30.15 in Calm     94% 0.00 in WeatherDisplay:10.37 W/m2 SCT
10:07 64.7 °F 62.9 °F 30.15 in Calm     94% 0.00 in WeatherDisplay:10.37 W/m2 SCT
10:12 65.0 °F 63.2 °F 30.16 in Calm     94% 0.00 in WeatherDisplay:10.37 W/m2 SCT
10:17 65.5 °F 63.4 °F 30.16 in Calm     93% 0.00 in WeatherDisplay:10.37 W/m2 SCT
10:22 66.0 °F 63.6 °F 30.16 in Calm     92% 0.00 in WeatherDisplay:10.37 W/m2 SCT
10:27 66.3 °F 63.6 °F 30.15 in Calm     91% 0.00 in WeatherDisplay:10.37 W/m2 SCT
10:32 66.6 °F 63.6 °F 30.15 in Calm     90% 0.00 in WeatherDisplay:10.37 W/m2 SCT
10:37 67.0 °F 63.6 °F 30.15 in West 1.2 mph   89% 0.00 in WeatherDisplay:10.37 W/m2 SCT
10:42 67.3 °F 63.9 °F 30.15 in Calm     89% 0.00 in WeatherDisplay:10.37 W/m2 SCT
10:47 67.6 °F 64.2 °F 30.15 in WNW 1.2 mph   89% 0.00 in WeatherDisplay:10.37 W/m2 SCT
10:52 67.9 °F 64.5 °F 30.15 in Calm     89% 0.00 in WeatherDisplay:10.37 W/m2 SCT
10:57 68.1 °F 64.1 °F 30.15 in Calm     87% 0.00 in WeatherDisplay:10.37 W/m2 SCT
11:02 68.8 °F 64.4 °F 30.15 in WNW 1.2 mph   86% 0.00 in WeatherDisplay:10.37 W/m2 SCT
11:07 69.9 °F 64.8 °F 30.15 in WNW 1.0 mph 1.0 mph 84% 0.00 in WeatherDisplay:10.37 W/m2 SCT
11:12 70.7 °F 64.9 °F 30.15 in Calm     82% 0.00 in WeatherDisplay:10.37 W/m2 SCT
11:17 71.3 °F 65.5 °F 30.15 in Calm     82% 0.00 in WeatherDisplay:10.37 W/m2 SCT
11:22 71.2 °F 65.1 °F 30.15 in West 1.2 mph   81% 0.00 in WeatherDisplay:10.37 W/m2 SCT
11:27 71.7 °F 65.6 °F 30.15 in East 1.2 mph   81% 0.00 in WeatherDisplay:10.37 W/m2 SCT
11:31 71.9 °F 65.0 °F 30.15 in West 1.2 mph 1.2 mph 79% 0.00 in WeatherDisplay:10.37 W/m2 SCT
11:36 72.0 °F 65.5 °F 30.15 in West 1.2 mph   80% 0.00 in WeatherDisplay:10.37 W/m2 SCT
11:41 72.1 °F 65.6 °F 30.15 in WNW 1.2 mph 1.2 mph 80% 0.00 in WeatherDisplay:10.37 W/m2 SCT
11:46 72.0 °F 65.1 °F 30.15 in WNW 1.2 mph 1.2 mph 79% 0.00 in WeatherDisplay:10.37 W/m2 SCT
11:51 72.0 °F 65.8 °F 30.15 in SW 1.2 mph 1.2 mph 81% 0.00 in WeatherDisplay:10.37 W/m2 SCT
11:56 72.0 °F 65.1 °F 30.15 in Calm     79% 0.00 in WeatherDisplay:10.37 W/m2 SCT
12:01 72.0 °F 65.5 °F 30.15 in Calm     80% 0.00 in WeatherDisplay:10.37 W/m2 SCT
12:06 71.9 °F 65.4 °F 30.15 in Calm     80% 0.00 in WeatherDisplay:10.37 W/m2 SCT
12:11 72.0 °F 65.8 °F 30.14 in Calm     81% 0.00 in WeatherDisplay:10.37 W/m2 SCT
12:16 72.2 °F 65.7 °F 30.14 in Calm     80% 0.00 in WeatherDisplay:10.37 W/m2 SCT
12:21 72.3 °F 65.4 °F 30.14 in SW 1.0 mph 1.0 mph 79% 0.00 in WeatherDisplay:10.37 W/m2 SCT
12:22 72.3 °F 65.4 °F 30.14 in SW 1.2 mph 1.2 mph 79% 0.00 in WeatherDisplay:10.37 W/m2 SCT
12:27 72.4 °F 65.9 °F 30.14 in Calm     80% 0.00 in WeatherDisplay:10.37 W/m2 SCT
12:32 72.5 °F 66.3 °F 30.14 in SW 1.2 mph   81% 0.00 in WeatherDisplay:10.37 W/m2 SCT
12:37 72.3 °F 66.1 °F 30.14 in NW 1.2 mph   81% 0.00 in WeatherDisplay:10.37 W/m2 SCT
12:42 72.1 °F 65.9 °F 30.14 in NNE 1.2 mph 1.2 mph 81% 0.00 in WeatherDisplay:10.37 W/m2 SCT
12:47 71.9 °F 66.1 °F 30.13 in Calm     82% 0.00 in WeatherDisplay:10.37 W/m2 SCT
12:52 71.8 °F 66.0 °F 30.13 in Calm     82% 0.00 in WeatherDisplay:10.37 W/m2 BKN
12:57 71.7 °F 65.9 °F 30.13 in Calm     82% 0.00 in WeatherDisplay:10.37 W/m2 BKN
13:02 71.5 °F 65.7 °F 30.12 in Calm     82% 0.00 in WeatherDisplay:10.37 W/m2 BKN
13:07 71.2 °F 65.8 °F 30.12 in Calm     83% 0.00 in WeatherDisplay:10.37 W/m2 BKN
13:12 71.0 °F 65.9 °F 30.12 in Calm     84% 0.00 in WeatherDisplay:10.37 W/m2 BKN
13:17 70.9 °F 65.8 °F 30.11 in Calm     84% 0.00 in WeatherDisplay:10.37 W/m2 BKN
13:22 70.8 °F 65.7 °F 30.11 in Calm     84% 0.00 in WeatherDisplay:10.37 W/m2 BKN
13:28 70.7 °F 65.6 °F 30.11 in Calm     84% 0.00 in WeatherDisplay:10.37 W/m2 BKN
13:33 70.7 °F 65.6 °F 30.11 in Calm     84% 0.00 in WeatherDisplay:10.37 W/m2 BKN
13:34 70.6 °F 65.5 °F 30.11 in Calm     84% 0.00 in WeatherDisplay:10.37 W/m2 BKN
13:39 70.7 °F 66.0 °F 30.10 in Calm     85% 0.00 in WeatherDisplay:10.37 W/m2 BKN
13:44 71.1 °F 65.3 °F 30.10 in Calm     82% 0.00 in WeatherDisplay:10.37 W/m2 BKN
13:49 71.2 °F 65.4 °F 30.10 in Calm     82% 0.00 in WeatherDisplay:10.37 W/m2 BKN
13:54 71.4 °F 65.3 °F 30.10 in Calm     81% 0.00 in WeatherDisplay:10.37 W/m2 BKN
13:59 71.8 °F 66.0 °F 30.10 in Calm     82% 0.00 in WeatherDisplay:10.37 W/m2 BKN
14:04 72.2 °F 66.0 °F 30.10 in ESE 1.0 mph 1.0 mph 81% 0.00 in WeatherDisplay:10.37 W/m2 BKN
14:09 72.3 °F 65.8 °F 30.09 in Calm   0.1 mph 80% 0.00 in WeatherDisplay:10.37 W/m2 BKN
14:14 72.6 °F 66.1 °F 30.09 in NW 1.2 mph   80% 0.00 in WeatherDisplay:10.37 W/m2 BKN
14:20 72.8 °F 65.9 °F 30.09 in Calm   1.0 mph 79% 0.00 in WeatherDisplay:10.37 W/m2 BKN
14:25 73.2 °F 66.0 °F 30.09 in East 1.0 mph 5.0 mph 78% 0.00 in WeatherDisplay:10.37 W/m2 BKN
14:30 73.7 °F 65.6 °F 30.09 in Calm   2.0 mph 76% 0.00 in WeatherDisplay:10.37 W/m2 BKN
14:35 73.3 °F 64.5 °F 30.09 in SE 1.0 mph 6.0 mph 74% 0.00 in WeatherDisplay:10.37 W/m2 BKN
14:40 71.7 °F 64.1 °F 30.09 in West 1.2 mph   77% 0.04 in WeatherDisplay:10.37 W/m2 RA
14:45 69.9 °F 63.8 °F 30.09 in WNW 1.0 mph 2.0 mph 81% 0.04 in WeatherDisplay:10.37 W/m2 RA
14:50 67.9 °F 62.9 °F 30.09 in Calm   1.0 mph 84% 0.29 in WeatherDisplay:10.37 W/m2 RA
14:55 66.9 °F 62.9 °F 30.08 in Calm     87% 0.00 in WeatherDisplay:10.37 W/m2 RA
15:00 66.5 °F 63.1 °F 30.08 in Calm   1.0 mph 89% 0.00 in WeatherDisplay:10.37 W/m2 BKN
15:05 66.3 °F 63.3 °F 30.08 in Calm   1.0 mph 90% 0.01 in WeatherDisplay:10.37 W/m2 -DZ
15:10 66.2 °F 63.5 °F 30.08 in Calm     91% 0.00 in WeatherDisplay:10.37 W/m2 -DZ
15:15 66.2 °F 63.5 °F 30.08 in Calm     91% 0.00 in WeatherDisplay:10.37 W/m2 -DZ
15:20 66.1 °F 63.4 °F 30.08 in Calm     91% 0.00 in WeatherDisplay:10.37 W/m2 -DZ
15:25 66.2 °F 63.8 °F 30.08 in Calm     92% 0.43 in WeatherDisplay:10.37 W/m2 -DZ
15:30 66.2 °F 63.8 °F 30.08 in Calm     92% 0.43 in WeatherDisplay:10.37 W/m2 -DZ
15:35 66.2 °F 63.8 °F 30.08 in Calm     92% 0.44 in WeatherDisplay:10.37 W/m2 -DZ
15:40 66.0 °F 63.6 °F 30.08 in Calm     92% 0.38 in WeatherDisplay:10.37 W/m2 -DZ
15:45 66.1 °F 63.7 °F 30.08 in Calm     92% 0.20 in WeatherDisplay:10.37 W/m2 -DZ
15:50 66.3 °F 63.9 °F 30.07 in Calm     92% 0.09 in WeatherDisplay:10.37 W/m2 -DZ
15:55 66.5 °F 64.4 °F 30.07 in Calm     93% 0.06 in WeatherDisplay:10.37 W/m2 -DZ
16:00 66.7 °F 64.6 °F 30.07 in Calm     93% 0.06 in WeatherDisplay:10.37 W/m2 -DZ
16:05 66.8 °F 64.7 °F 30.07 in Calm     93% 0.06 in WeatherDisplay:10.37 W/m2 BKN
16:10 67.2 °F 65.1 °F 30.07 in Calm     93% 0.06 in WeatherDisplay:10.37 W/m2 BKN
16:15 67.8 °F 65.7 °F 30.07 in Calm     93% 0.04 in WeatherDisplay:10.37 W/m2 BKN
16:20 68.1 °F 66.0 °F 30.07 in Calm     93% 0.03 in WeatherDisplay:10.37 W/m2 BKN
16:25 68.2 °F 66.1 °F 30.07 in Calm     93% 0.02 in WeatherDisplay:10.37 W/m2 BKN
16:30 68.4 °F 66.3 °F 30.07 in Calm     93% 0.02 in WeatherDisplay:10.37 W/m2 BKN
16:35 68.5 °F 66.4 °F 30.07 in Calm     93% 0.01 in WeatherDisplay:10.37 W/m2 BKN
16:40 68.5 °F 66.4 °F 30.07 in Calm     93% 0.01 in WeatherDisplay:10.37 W/m2 BKN
16:45 68.4 °F 66.3 °F 30.06 in Calm     93% 0.01 in WeatherDisplay:10.37 W/m2 BKN
16:50 68.5 °F 66.4 °F 30.07 in Calm     93% 0.01 in WeatherDisplay:10.37 W/m2 BKN
16:55 68.5 °F 66.4 °F 30.07 in Calm     93% 0.01 in WeatherDisplay:10.37 W/m2 BKN
17:01 68.5 °F 66.4 °F 30.07 in Calm     93% 0.00 in WeatherDisplay:10.37 W/m2 BKN
17:06 68.4 °F 66.0 °F 30.07 in Calm     92% 0.00 in WeatherDisplay:10.37 W/m2 BKN
17:11 68.4 °F 66.3 °F 30.07 in Calm     93% 0.00 in WeatherDisplay:10.37 W/m2 BKN
17:16 68.3 °F 65.9 °F 30.07 in Calm     92% 0.00 in WeatherDisplay:10.37 W/m2 BKN
17:21 68.2 °F 65.8 °F 30.07 in Calm     92% 0.00 in WeatherDisplay:10.37 W/m2 BKN
17:26 68.1 °F 65.7 °F 30.07 in Calm     92% 0.00 in WeatherDisplay:10.37 W/m2 BKN
17:31 68.0 °F 65.6 °F 30.08 in Calm     92% 0.00 in WeatherDisplay:10.37 W/m2 BKN
17:36 67.9 °F 65.8 °F 30.08 in Calm     93% 0.00 in WeatherDisplay:10.37 W/m2 BKN
17:41 67.8 °F 65.7 °F 30.08 in Calm     93% 0.00 in WeatherDisplay:10.37 W/m2 BKN
17:46 67.8 °F 65.7 °F 30.08 in Calm     93% 0.00 in WeatherDisplay:10.37 W/m2 BKN
17:51 67.7 °F 65.6 °F 30.09 in NNW 1.2 mph   93% 0.00 in WeatherDisplay:10.37 W/m2 BKN
17:56 67.5 °F 65.4 °F 30.09 in North 1.0 mph   93% 0.00 in WeatherDisplay:10.37 W/m2 BKN
18:01 67.5 °F 65.4 °F 30.09 in Calm     93% 0.00 in WeatherDisplay:10.37 W/m2 -RA
18:06 67.4 °F 65.3 °F 30.09 in Calm     93% 0.00 in WeatherDisplay:10.37 W/m2 -RA
18:11 67.3 °F 65.2 °F 30.09 in Calm     93% 0.08 in WeatherDisplay:10.37 W/m2 -RA
18:16 67.2 °F 65.1 °F 30.09 in Calm     93% 0.13 in WeatherDisplay:10.37 W/m2 -RA
18:21 67.1 °F 65.0 °F 30.09 in Calm     93% 0.15 in WeatherDisplay:10.37 W/m2 -RA
18:26 66.9 °F 64.8 °F 30.09 in Calm     93% 0.16 in WeatherDisplay:10.37 W/m2 -RA
18:31 66.8 °F 64.7 °F 30.09 in Calm     93% 0.17 in WeatherDisplay:10.37 W/m2 -RA
18:36 66.7 °F 64.6 °F 30.09 in Calm     93% 0.19 in WeatherDisplay:10.37 W/m2 -RA
18:41 66.6 °F 64.5 °F 30.08 in Calm     93% 0.19 in WeatherDisplay:10.37 W/m2 -RA
18:47 66.5 °F 64.4 °F 30.08 in Calm     93% 0.20 in WeatherDisplay:10.37 W/m2 -RA
18:52 66.4 °F 64.3 °F 30.08 in Calm     93% 0.21 in WeatherDisplay:10.37 W/m2 BKN
18:57 66.4 °F 64.3 °F 30.08 in Calm     93% 0.21 in WeatherDisplay:10.37 W/m2 BKN
19:02 66.2 °F 64.1 °F 30.08 in Calm     93% 0.21 in WeatherDisplay:10.37 W/m2 BKN
19:07 66.2 °F 64.1 °F 30.08 in Calm     93% 0.21 in WeatherDisplay:10.37 W/m2 BKN
19:12 66.1 °F 64.0 °F 30.09 in Calm     93% 0.13 in WeatherDisplay:10.37 W/m2 BKN
19:17 66.0 °F 63.9 °F 30.08 in Calm     93% 0.08 in WeatherDisplay:10.37 W/m2 BKN
19:22 65.8 °F 63.7 °F 30.09 in Calm     93% 0.06 in WeatherDisplay:10.37 W/m2 BKN
19:27 65.7 °F 63.6 °F 30.08 in Calm     93% 0.05 in WeatherDisplay:10.37 W/m2 BKN
19:32 65.6 °F 63.5 °F 30.09 in Calm     93% 0.04 in WeatherDisplay:10.37 W/m2 BKN
19:37 65.4 °F 63.3 °F 30.09 in Calm     93% 0.02 in WeatherDisplay:10.37 W/m2 BKN
19:42 65.2 °F 63.1 °F 30.09 in Calm     93% 0.02 in WeatherDisplay:10.37 W/m2 BKN
19:47 65.2 °F 63.1 °F 30.09 in Calm     93% 0.01 in WeatherDisplay:10.37 W/m2 BKN
19:52 65.1 °F 63.0 °F 30.09 in Calm     93% 0.00 in WeatherDisplay:10.37 W/m2 BKN
19:57 65.1 °F 63.0 °F 30.10 in Calm     93% 0.00 in WeatherDisplay:10.37 W/m2 BKN
20:02 65.1 °F 63.0 °F 30.10 in Calm     93% 0.00 in WeatherDisplay:10.37 W/m2 BKN
20:07 65.1 °F 63.0 °F 30.10 in Calm     93% 0.00 in WeatherDisplay:10.37 W/m2 BKN
20:12 65.0 °F 62.9 °F 30.10 in Calm     93% 0.00 in WeatherDisplay:10.37 W/m2 BKN
20:17 64.9 °F 62.8 °F 30.10 in Calm     93% 0.00 in WeatherDisplay:10.37 W/m2 BKN
20:22 64.8 °F 62.7 °F 30.10 in Calm     93% 0.00 in WeatherDisplay:10.37 W/m2 FOG
20:28 64.7 °F 62.6 °F 30.10 in Calm     93% 0.00 in WeatherDisplay:10.37 W/m2 FOG
20:33 64.7 °F 62.6 °F 30.10 in Calm     93% 0.00 in WeatherDisplay:10.37 W/m2 FOG
20:38 64.7 °F 62.6 °F 30.10 in Calm     93% 0.00 in WeatherDisplay:10.37 W/m2 FOG
20:43 64.5 °F 62.4 °F 30.10 in Calm     93% 0.00 in WeatherDisplay:10.37 W/m2 FOG
20:48 64.5 °F 62.4 °F 30.10 in Calm     93% 0.00 in WeatherDisplay:10.37 W/m2 FOG
20:53 64.5 °F 62.7 °F 30.10 in Calm     94% 0.00 in WeatherDisplay:10.37 W/m2 SCT
20:58 64.4 °F 62.6 °F 30.10 in Calm     94% 0.00 in WeatherDisplay:10.37 W/m2 SCT
21:03 64.4 °F 62.6 °F 30.10 in Calm     94% 0.00 in WeatherDisplay:10.37 W/m2 BKN
21:08 64.3 °F 62.5 °F 30.10 in Calm     94% 0.00 in WeatherDisplay:10.37 W/m2 BKN
21:13 64.3 °F 62.5 °F 30.10 in Calm     94% 0.00 in WeatherDisplay:10.37 W/m2 BKN
21:18 64.3 °F 62.5 °F 30.10 in Calm     94% 0.00 in WeatherDisplay:10.37 W/m2 BKN
21:23 64.3 °F 62.5 °F 30.10 in Calm     94% 0.00 in WeatherDisplay:10.37 W/m2 BKN
21:28 64.3 °F 62.5 °F 30.10 in Calm     94% 0.00 in WeatherDisplay:10.37 W/m2 BKN
21:33 64.3 °F 62.5 °F 30.11 in Calm     94% 0.00 in WeatherDisplay:10.37 W/m2 BKN
21:39 64.4 °F 62.6 °F 30.11 in Calm     94% 0.00 in WeatherDisplay:10.37 W/m2 BKN
21:44 64.6 °F 62.8 °F 30.11 in Calm     94% 0.00 in WeatherDisplay:10.37 W/m2 BKN
21:49 64.6 °F 62.8 °F 30.11 in Calm     94% 0.00 in WeatherDisplay:10.37 W/m2 BKN
21:54 64.6 °F 62.8 °F 30.11 in Calm     94% 0.01 in WeatherDisplay:10.37 W/m2 RA
21:59 64.7 °F 62.9 °F 30.11 in Calm     94% 0.01 in WeatherDisplay:10.37 W/m2 BKN
22:04 64.7 °F 62.9 °F 30.11 in Calm     94% 0.01 in WeatherDisplay:10.37 W/m2 BKN
22:09 64.7 °F 62.9 °F 30.10 in Calm     94% 0.01 in WeatherDisplay:10.37 W/m2 BKN
22:14 64.7 °F 62.9 °F 30.10 in Calm     94% 0.01 in WeatherDisplay:10.37 W/m2 BKN
22:19 64.6 °F 62.8 °F 30.11 in Calm     94% 0.01 in WeatherDisplay:10.37 W/m2 BKN
22:24 64.5 °F 62.7 °F 30.11 in Calm     94% 0.01 in WeatherDisplay:10.37 W/m2 BKN
22:29 64.5 °F 62.7 °F 30.10 in Calm     94% 0.01 in WeatherDisplay:10.37 W/m2 BKN
22:34 64.4 °F 62.6 °F 30.10 in Calm     94% 0.01 in WeatherDisplay:10.37 W/m2 BKN
22:39 64.4 °F 62.6 °F 30.11 in Calm     94% 0.01 in WeatherDisplay:10.37 W/m2 BKN
22:44 64.4 °F 62.6 °F 30.10 in Calm     94% 0.01 in WeatherDisplay:10.37 W/m2 BKN
22:49 64.3 °F 62.5 °F 30.10 in Calm     94% 0.01 in WeatherDisplay:10.37 W/m2 BKN
22:54 64.2 °F 62.4 °F 30.10 in Calm     94% 0.00 in WeatherDisplay:10.37 W/m2 BKN
22:59 64.2 °F 62.4 °F 30.11 in Calm     94% 0.00 in WeatherDisplay:10.37 W/m2 BKN
23:04 64.2 °F 62.4 °F 30.11 in Calm     94% 0.00 in WeatherDisplay:10.37 W/m2 BKN
23:09 64.3 °F 62.5 °F 30.12 in Calm     94% 0.00 in WeatherDisplay:10.37 W/m2 BKN
23:15 64.4 °F 62.6 °F 30.12 in Calm     94% 0.00 in WeatherDisplay:10.37 W/m2 BKN
23:20 64.3 °F 62.5 °F 30.12 in Calm     94% 0.00 in WeatherDisplay:10.37 W/m2 BKN
23:21 64.3 °F 62.5 °F 30.12 in Calm     94% 0.00 in WeatherDisplay:10.37 W/m2 BKN
23:24 64.3 °F 62.5 °F 30.11 in Calm     94% 0.00 in WeatherDisplay:10.37 W/m2 BKN
23:26 64.3 °F 62.5 °F 30.12 in Calm     94% 0.00 in WeatherDisplay:10.37 W/m2 BKN
23:29 64.2 °F 62.4 °F 30.12 in Calm     94% 0.00 in WeatherDisplay:10.37 W/m2 BKN
23:35 64.1 °F 62.3 °F 30.12 in Calm     94% 0.00 in WeatherDisplay:10.37 W/m2 BKN
23:38 64.0 °F 62.2 °F 30.12 in Calm     94% 0.00 in WeatherDisplay:10.37 W/m2 BKN
23:43 63.9 °F 62.1 °F 30.12 in Calm     94% 0.00 in WeatherDisplay:10.37 W/m2 BKN
23:48 63.9 °F 62.1 °F 30.12 in Calm     94% 0.00 in WeatherDisplay:10.37 W/m2 BKN
23:53 63.8 °F 62.0 °F 30.12 in Calm     94% 0.00 in WeatherDisplay:10.37 W/m2 SCT
23:59 63.6 °F 61.8 °F 30.12 in Calm     94% 0.00 in WeatherDisplay:10.37 W/m2 SCT
Piedmont Bend
Compliments of Weather Underground - 4 mb